Cape York — VRXE9 — position and weather

sailwx.info

Track history (hours):
 
Tides and Currents Weather Stations Pressure Air Temp Water Temp Dewpoint Dewpoint Depression Visibility Wind Speed Wind Dir Waves Ship Positions

Cape York

Last reported at 2015-Aug-31 03:21 UTC. Time now 2015-Sep-05 05:50 UTC.
Position S 41°41' E 150°53'.

Length 170 m; draft 9 m.

Type: Cargo ship. MMSI: 477924000.

Date/timePositionNaut miles runAvg speedWind from/ knotsBaromVisibWave heightAir tempDewpointWater temp
2015-Aug-31 03:21S 41°41' E 150°53'7 8.7
2015-Aug-31 02:33S 41°38' E 150°44'4 3.5
2015-Aug-31 01:26S 41°37' E 150°39'10 8.7
2015-Aug-31 00:20S 41°33' E 150°27'1412.4
2015-Aug-30 23:13S 41°27' E 150°11'6 7.9
2015-Aug-30 22:24S 41°24' E 150°03'52 8.9
2015-Aug-30 16:33S 41°01' E 149°01'1512.8
2015-Aug-30 15:24S 40°55' E 148°43'40 9.6
2015-Aug-30 11:11S 40°35' E 147°57'2213.1
2015-Aug-30 09:28S 40°24' E 147°32'4 4.7
2015-Aug-30 08:34S 40°22' E 147°27'1211.5
2015-Aug-30 07:29S 40°16' E 147°12'4013.0
2015-Aug-30 04:25S 39°57' E 146°27'1212.3
2015-Aug-30 03:24S 39°51' E 146°13'4414.9
2015-Aug-30 00:26S 39°32' E 145°21'10 9.0
2015-Aug-29 23:20S 39°28' E 145°09'  
Track history (hours):
 
Tides and Currents Weather Stations Pressure Air Temp Water Temp Dewpoint Dewpoint Depression Visibility Wind Speed Wind Dir Waves Ship Positions

Cape York

Last reported at 2015-Aug-31 03:21 UTC. Time now 2015-Sep-05 05:50 UTC.
Position S 41°41' E 150°53'.

Length 170 m; draft 9 m.

Type: Cargo ship. MMSI: 477924000.

Date/timePositionNaut miles runAvg speedWind from/ knotsBaromVisibWave heightAir tempDewpointWater temp
2015-Aug-31 03:21S 41°41' E 150°53'7 8.7
2015-Aug-31 02:33S 41°38' E 150°44'4 3.5
2015-Aug-31 01:26S 41°37' E 150°39'10 8.7
2015-Aug-31 00:20S 41°33' E 150°27'1412.4
2015-Aug-30 23:13S 41°27' E 150°11'6 7.9
2015-Aug-30 22:24S 41°24' E 150°03'52 8.9
2015-Aug-30 16:33S 41°01' E 149°01'1512.8
2015-Aug-30 15:24S 40°55' E 148°43'40 9.6
2015-Aug-30 11:11S 40°35' E 147°57'2213.1
2015-Aug-30 09:28S 40°24' E 147°32'4 4.7
2015-Aug-30 08:34S 40°22' E 147°27'1211.5
2015-Aug-30 07:29S 40°16' E 147°12'4013.0
2015-Aug-30 04:25S 39°57' E 146°27'1212.3
2015-Aug-30 03:24S 39°51' E 146°13'4414.9
2015-Aug-30 00:26S 39°32' E 145°21'10 9.0
2015-Aug-29 23:20S 39°28' E 145°09'  

Dump ship's entire track history